Time;durP1;ratioP1;P1;durP2;ratioP2;P2;SDS_P1;SDS_P2;PMS_P1;PMS_P2;Temp;Humidity;BMP_temperature;BMP_pressure;BME280_temperature;BME280_humidity;BME280_pressure;Samples;Min_cycle;Max_cycle;Signal;HPM_P1;HPM_P2
2024/01/12 00:01:45;;;;;;;57.60;32.58;;;;;;;;;;6106509;23;20030;-83
2024/01/12 00:04:18;;;;;;;58.67;31.38;;;;;;;;;;6106068;23;20018;-82
2024/01/12 00:06:48;;;;;;;64.75;30.83;;;;;;;;;;6108515;23;20062;-83
2024/01/12 00:12:37;;;;;;;55.72;31.52;;;;;;;;;;6092448;23;20037;-83
2024/01/12 00:15:08;;;;;;;64.10;31.00;;;;;;;;;;6107039;23;20026;-82
2024/01/12 00:17:38;;;;;;;60.15;31.40;;;;;;;;;;6109691;23;20022;-83
2024/01/12 00:20:11;;;;;;;59.33;30.17;;;;;;;;;;6108894;23;20041;-83
2024/01/12 00:22:40;;;;;;;58.65;30.58;;;;;;;;;;6109836;23;20022;-83
2024/01/12 00:25:06;;;;;;;64.03;31.20;;;;;;;;;;6109400;23;20022;-83
2024/01/12 00:27:33;;;;;;;56.70;30.92;;;;;;;;;;6111201;23;20049;-82
2024/01/12 00:29:59;;;;;;;56.45;31.30;;;;;;;;;;6110271;23;20430;-82
2024/01/12 00:32:26;;;;;;;57.00;32.47;;;;;;;;;;6102759;23;20478;-81
2024/01/12 00:34:52;;;;;;;56.00;31.67;;;;;;;;;;6101016;23;20033;-82
2024/01/12 00:37:20;;;;;;;57.10;32.13;;;;;;;;;;6104480;23;20027;-82
2024/01/12 00:39:46;;;;;;;57.83;32.50;;;;;;;;;;6107213;23;20026;-81
2024/01/12 00:42:13;;;;;;;56.03;32.58;;;;;;;;;;6101258;23;20053;-82
2024/01/12 00:44:39;;;;;;;64.38;30.80;;;;;;;;;;6101569;23;20050;-82
2024/01/12 00:47:06;;;;;;;58.63;33.92;;;;;;;;;;6101445;23;20061;-81
2024/01/12 00:49:32;;;;;;;68.20;34.85;;;;;;;;;;6104323;23;20037;-81
2024/01/12 00:51:59;;;;;;;56.90;31.23;;;;;;;;;;6105022;23;20022;-82
2024/01/12 00:54:27;;;;;;;54.63;31.65;;;;;;;;;;6102879;23;20025;-82
2024/01/12 00:56:53;;;;;;;67.68;33.22;;;;;;;;;;6101928;23;20097;-81
2024/01/12 00:59:20;;;;;;;58.65;33.35;;;;;;;;;;6102797;23;20038;-81
2024/01/12 01:01:46;;;;;;;59.83;33.17;;;;;;;;;;6104925;23;20022;-80
2024/01/12 01:04:13;;;;;;;57.35;32.72;;;;;;;;;;6119833;23;20026;-81
2024/01/12 01:06:39;;;;;;;57.10;33.15;;;;;;;;;;6119940;23;20021;-82
2024/01/12 01:09:05;;;;;;;58.25;33.67;;;;;;;;;;6118681;23;20038;-81
2024/01/12 01:11:33;;;;;;;64.35;32.15;;;;;;;;;;6102115;23;20489;-82
2024/01/12 01:14:00;;;;;;;57.92;31.88;;;;;;;;;;6101410;23;20026;-81
2024/01/12 01:16:26;;;;;;;61.30;34.42;;;;;;;;;;6102330;23;20479;-82
2024/01/12 01:18:52;;;;;;;63.22;33.60;;;;;;;;;;6101583;23;20091;-81
2024/01/12 01:21:19;;;;;;;61.20;33.78;;;;;;;;;;6104505;23;20054;-80
2024/01/12 01:23:45;;;;;;;59.05;32.90;;;;;;;;;;6105767;23;20026;-82
2024/01/12 01:26:11;;;;;;;66.57;34.60;;;;;;;;;;6102170;23;20057;-82
2024/01/12 01:28:39;;;;;;;61.65;33.58;;;;;;;;;;6104666;23;20068;-81
2024/01/12 01:31:06;;;;;;;55.80;31.60;;;;;;;;;;6103690;23;20367;-82
2024/01/12 01:33:32;;;;;;;61.72;32.28;;;;;;;;;;6103906;23;20029;-82
2024/01/12 01:35:58;;;;;;;57.70;33.05;;;;;;;;;;6103746;23;20061;-82
2024/01/12 01:38:25;;;;;;;57.40;33.42;;;;;;;;;;6102899;23;20424;-82
2024/01/12 01:40:51;;;;;;;64.60;33.20;;;;;;;;;;6103291;23;20061;-82
2024/01/12 01:43:17;;;;;;;61.50;33.65;;;;;;;;;;6104321;23;20018;-82
2024/01/12 01:45:45;;;;;;;60.88;33.53;;;;;;;;;;6109802;23;20030;-82
2024/01/12 01:48:12;;;;;;;59.15;34.85;;;;;;;;;;6108596;23;20054;-82
2024/01/12 01:50:39;;;;;;;58.92;33.08;;;;;;;;;;6106658;23;20058;-82
2024/01/12 01:53:05;;;;;;;61.08;32.83;;;;;;;;;;6103622;23;20026;-83
2024/01/12 01:55:32;;;;;;;56.08;32.88;;;;;;;;;;6103098;23;20045;-82
2024/01/12 01:58:00;;;;;;;55.72;32.55;;;;;;;;;;6103591;23;20034;-83
2024/01/12 02:00:27;;;;;;;55.88;31.80;;;;;;;;;;6103172;23;20062;-83
2024/01/12 02:02:55;;;;;;;60.65;32.78;;;;;;;;;;6103947;23;20065;-82
2024/01/12 02:05:22;;;;;;;57.30;31.50;;;;;;;;;;6103689;23;20057;-83
2024/01/12 02:07:48;;;;;;;61.40;33.95;;;;;;;;;;6103583;23;20027;-83
2024/01/12 02:10:20;;;;;;;61.30;34.63;;;;;;;;;;6104206;23;20038;-83
2024/01/12 02:12:54;;;;;;;65.40;33.80;;;;;;;;;;6104132;23;20033;-83
2024/01/12 02:27:26;;;;;;;64.32;34.90;;;;;;;;;;6088537;23;20018;-81
2024/01/12 02:29:52;;;;;;;61.67;32.47;;;;;;;;;;6105029;23;20030;-80
2024/01/12 02:32:18;;;;;;;64.75;35.90;;;;;;;;;;6104252;23;20026;-81
2024/01/12 02:34:45;;;;;;;66.53;35.78;;;;;;;;;;6106314;23;20132;-81
2024/01/12 02:37:11;;;;;;;64.55;34.45;;;;;;;;;;6114393;23;20037;-81
2024/01/12 02:39:38;;;;;;;60.08;33.72;;;;;;;;;;6109587;23;20026;-82
2024/01/12 02:42:04;;;;;;;65.82;36.22;;;;;;;;;;6108512;23;20030;-81
2024/01/12 02:44:32;;;;;;;65.80;34.50;;;;;;;;;;6102857;23;20057;-81
2024/01/12 02:46:58;;;;;;;62.38;33.72;;;;;;;;;;6102823;23;20022;-81
2024/01/12 02:49:25;;;;;;;64.10;34.63;;;;;;;;;;6102727;23;20033;-81
2024/01/12 02:51:51;;;;;;;60.85;33.88;;;;;;;;;;6100959;23;20615;-81
2024/01/12 02:54:18;;;;;;;67.43;34.88;;;;;;;;;;6100710;23;20019;-81
2024/01/12 02:56:44;;;;;;;65.30;35.08;;;;;;;;;;6104525;23;20475;-80
2024/01/12 02:59:10;;;;;;;64.13;34.92;;;;;;;;;;6103900;23;20026;-82
2024/01/12 03:01:38;;;;;;;68.82;35.30;;;;;;;;;;6102266;23;20076;-82
2024/01/12 03:04:04;;;;;;;77.32;35.92;;;;;;;;;;6103299;23;20030;-82
2024/01/12 03:06:31;;;;;;;69.78;37.38;;;;;;;;;;6102269;23;20023;-82
2024/01/12 03:08:57;;;;;;;74.03;35.45;;;;;;;;;;6101847;23;20030;-81
2024/01/12 03:11:24;;;;;;;72.82;36.78;;;;;;;;;;6100942;23;20026;-81
2024/01/12 03:13:51;;;;;;;65.75;36.53;;;;;;;;;;6103609;23;20380;-81
2024/01/12 03:16:20;;;;;;;71.45;37.65;;;;;;;;;;6107155;23;20057;-81
2024/01/12 03:18:49;;;;;;;72.05;36.75;;;;;;;;;;6109189;23;20027;-80
2024/01/12 03:21:15;;;;;;;73.78;37.47;;;;;;;;;;6103913;23;20030;-82
2024/01/12 03:23:42;;;;;;;69.97;38.05;;;;;;;;;;6100481;23;20224;-81
2024/01/12 03:26:08;;;;;;;74.45;37.50;;;;;;;;;;6100576;23;20037;-81
2024/01/12 03:28:34;;;;;;;74.03;37.72;;;;;;;;;;6101296;23;20063;-82
2024/01/12 03:31:01;;;;;;;66.03;36.95;;;;;;;;;;6102282;23;20070;-82
2024/01/12 03:33:27;;;;;;;70.82;35.20;;;;;;;;;;6101875;23;20076;-82
2024/01/12 03:35:55;;;;;;;65.40;35.85;;;;;;;;;;6101147;23;20033;-82
2024/01/12 03:38:21;;;;;;;69.47;35.38;;;;;;;;;;6101832;23;20033;-82
2024/01/12 03:40:48;;;;;;;68.97;37.25;;;;;;;;;;6101989;23;20033;-81
2024/01/12 03:43:14;;;;;;;68.18;36.35;;;;;;;;;;6102171;23;20186;-83
2024/01/12 03:45:41;;;;;;;75.13;39.70;;;;;;;;;;6102217;23;20022;-81
2024/01/12 03:48:07;;;;;;;65.70;36.13;;;;;;;;;;6102881;23;20059;-83
2024/01/12 03:50:34;;;;;;;73.88;37.83;;;;;;;;;;6102816;23;20090;-80
2024/01/12 03:53:01;;;;;;;68.75;36.92;;;;;;;;;;6101708;23;20054;-83
2024/01/12 03:55:28;;;;;;;66.38;38.55;;;;;;;;;;6102211;23;20089;-82
2024/01/12 03:57:54;;;;;;;71.93;38.05;;;;;;;;;;6101999;23;20027;-83
2024/01/12 04:00:21;;;;;;;75.72;40.25;;;;;;;;;;6100109;23;20033;-81
2024/01/12 04:02:47;;;;;;;80.32;38.70;;;;;;;;;;6100333;23;20026;-81
2024/01/12 04:05:13;;;;;;;76.57;40.33;;;;;;;;;;6100554;23;20407;-81
2024/01/12 04:07:40;;;;;;;81.22;38.83;;;;;;;;;;6100838;23;20064;-81
2024/01/12 04:10:08;;;;;;;77.38;40.72;;;;;;;;;;6101044;23;20400;-80
2024/01/12 04:12:34;;;;;;;74.32;37.95;;;;;;;;;;6099442;23;20050;-81
2024/01/12 04:15:01;;;;;;;84.22;39.85;;;;;;;;;;6099643;23;20065;-80
2024/01/12 04:17:27;;;;;;;82.45;41.17;;;;;;;;;;6100468;23;20478;-80
2024/01/12 04:19:53;;;;;;;88.63;41.67;;;;;;;;;;6100306;23;20450;-80
2024/01/12 04:22:20;;;;;;;83.95;41.10;;;;;;;;;;6100554;23;20034;-81
2024/01/12 04:24:46;;;;;;;75.35;41.05;;;;;;;;;;6100427;23;20045;-81
2024/01/12 04:27:14;;;;;;;88.40;42.05;;;;;;;;;;6100112;23;20030;-81
2024/01/12 04:29:40;;;;;;;77.10;42.55;;;;;;;;;;6100249;23;20054;-80
2024/01/12 04:32:07;;;;;;;83.65;43.08;;;;;;;;;;6103100;23;20479;-83
2024/01/12 04:34:35;;;;;;;85.25;43.90;;;;;;;;;;6104849;23;20022;-82
2024/01/12 04:37:01;;;;;;;78.88;41.17;;;;;;;;;;6105401;23;20022;-82
2024/01/12 04:39:30;;;;;;;91.18;42.58;;;;;;;;;;6106181;23;20033;-82
2024/01/12 04:41:59;;;;;;;90.38;43.40;;;;;;;;;;6105643;23;20050;-82
2024/01/12 04:44:30;;;;;;;88.85;43.28;;;;;;;;;;6105844;23;20513;-81
2024/01/12 04:47:03;;;;;;;89.35;43.67;;;;;;;;;;6105647;23;20030;-82
2024/01/12 04:49:39;;;;;;;97.28;45.28;;;;;;;;;;6104823;23;20029;-82
2024/01/12 04:52:08;;;;;;;92.07;43.60;;;;;;;;;;6105374;23;20010;-83
2024/01/12 04:54:35;;;;;;;88.60;42.97;;;;;;;;;;6101020;23;20057;-82
2024/01/12 04:57:01;;;;;;;91.10;44.45;;;;;;;;;;6101189;23;20081;-81
2024/01/12 04:59:29;;;;;;;88.45;43.83;;;;;;;;;;6100726;23;20105;-83
2024/01/12 05:01:55;;;;;;;90.18;45.92;;;;;;;;;;6101383;23;20478;-82
2024/01/12 05:04:21;;;;;;;95.45;44.72;;;;;;;;;;6104630;23;20034;-82
2024/01/12 05:06:48;;;;;;;102.90;47.28;;;;;;;;;;6104467;23;20026;-82
2024/01/12 05:09:14;;;;;;;94.00;46.30;;;;;;;;;;6104167;23;20030;-82
2024/01/12 05:11:41;;;;;;;93.65;46.03;;;;;;;;;;6105070;23;20097;-83
2024/01/12 05:14:07;;;;;;;101.75;46.28;;;;;;;;;;6104649;23;20056;-83
2024/01/12 05:16:35;;;;;;;110.50;47.58;;;;;;;;;;6104729;23;20359;-80
2024/01/12 05:19:02;;;;;;;107.18;45.45;;;;;;;;;;6105122;23;20049;-80
2024/01/12 05:21:28;;;;;;;106.65;49.40;;;;;;;;;;6105015;23;20033;-83
2024/01/12 05:23:54;;;;;;;107.50;47.60;;;;;;;;;;6103094;23;20030;-82
2024/01/12 05:26:21;;;;;;;108.32;47.88;;;;;;;;;;6104699;23;20505;-83
2024/01/12 05:28:47;;;;;;;107.88;49.55;;;;;;;;;;6103489;23;20037;-82
2024/01/12 05:31:14;;;;;;;101.22;47.30;;;;;;;;;;6102815;23;20029;-82
2024/01/12 05:33:42;;;;;;;107.95;48.03;;;;;;;;;;6106142;23;20026;-82
2024/01/12 05:36:08;;;;;;;108.43;46.47;;;;;;;;;;6104321;23;20022;-81
2024/01/12 05:38:36;;;;;;;116.13;46.75;;;;;;;;;;6104183;23;20038;-82
2024/01/12 05:41:02;;;;;;;116.60;47.40;;;;;;;;;;6102734;23;20050;-81
2024/01/12 05:43:29;;;;;;;110.28;46.05;;;;;;;;;;6102352;23;20066;-81
2024/01/12 05:45:55;;;;;;;123.22;47.70;;;;;;;;;;6101649;23;20018;-82
2024/01/12 05:48:21;;;;;;;112.68;46.55;;;;;;;;;;6102798;23;20495;-82
2024/01/12 05:50:49;;;;;;;120.70;47.88;;;;;;;;;;6103929;23;20058;-81
2024/01/12 05:53:16;;;;;;;117.63;46.55;;;;;;;;;;6102627;23;20054;-82
2024/01/12 05:55:43;;;;;;;122.45;46.75;;;;;;;;;;6101774;23;20018;-82
2024/01/12 05:58:09;;;;;;;120.32;45.28;;;;;;;;;;6102726;23;20054;-82
2024/01/12 06:00:36;;;;;;;120.38;44.72;;;;;;;;;;6108570;23;20026;-82
2024/01/12 06:03:02;;;;;;;128.65;46.80;;;;;;;;;;6103496;23;20027;-82
2024/01/12 06:05:28;;;;;;;119.95;48.40;;;;;;;;;;6102950;23;20026;-82
2024/01/12 06:07:56;;;;;;;123.85;46.30;;;;;;;;;;6098676;23;20056;-81
2024/01/12 06:10:22;;;;;;;126.32;48.88;;;;;;;;;;6102876;23;20022;-82
2024/01/12 06:12:49;;;;;;;126.78;47.45;;;;;;;;;;6102872;23;20102;-82
2024/01/12 06:15:15;;;;;;;116.47;45.88;;;;;;;;;;6103002;23;20050;-81
2024/01/12 06:17:42;;;;;;;116.13;42.70;;;;;;;;;;6102384;23;20060;-82
2024/01/12 06:20:08;;;;;;;119.68;46.10;;;;;;;;;;6101649;23;20026;-82
2024/01/12 06:22:40;;;;;;;124.65;45.78;;;;;;;;;;6103206;23;20061;-82
2024/01/12 06:28:35;;;;;;;115.15;43.72;;;;;;;;;;6067005;23;20460;-82
2024/01/12 06:40:37;;;;;;;119.30;46.00;;;;;;;;;;6011541;23;20075;-82
2024/01/12 06:46:22;;;;;;;129.40;47.55;;;;;;;;;;6082963;23;20026;-81
2024/01/12 06:49:01;;;;;;;113.60;46.72;;;;;;;;;;6094405;23;20409;-80
2024/01/12 06:51:37;;;;;;;121.78;47.20;;;;;;;;;;6136562;23;20022;-84
2024/01/12 06:54:10;;;;;;;128.90;48.10;;;;;;;;;;6136552;23;20117;-79
2024/01/12 06:56:46;;;;;;;129.30;48.10;;;;;;;;;;6136679;23;20105;-80
2024/01/12 06:59:23;;;;;;;130.18;48.03;;;;;;;;;;6120033;23;20023;-81
2024/01/12 07:01:55;;;;;;;132.68;46.78;;;;;;;;;;6107631;23;20038;-80
2024/01/12 07:04:31;;;;;;;120.97;45.50;;;;;;;;;;6110896;23;20022;-80
2024/01/12 07:09:45;;;;;;;123.20;45.60;;;;;;;;;;6102839;23;20026;-79
2024/01/12 07:12:16;;;;;;;118.03;43.83;;;;;;;;;;6106519;23;20018;-82
2024/01/12 07:14:57;;;;;;;137.75;48.28;;;;;;;;;;6105046;23;20053;-80
2024/01/12 07:17:33;;;;;;;129.07;44.42;;;;;;;;;;6118169;23;20010;-81
2024/01/12 07:20:08;;;;;;;128.05;46.70;;;;;;;;;;6110757;23;20495;-83
2024/01/12 07:22:50;;;;;;;130.32;47.95;;;;;;;;;;6110071;23;20063;-83
2024/01/12 07:25:26;;;;;;;131.20;47.13;;;;;;;;;;6109830;23;20014;-83
2024/01/12 07:33:41;;;;;;;137.90;46.58;;;;;;;;;;6052591;23;20054;-83
2024/01/12 07:36:17;;;;;;;123.75;45.28;;;;;;;;;;6056212;23;20067;-84
2024/01/12 07:39:06;;;;;;;141.98;45.65;;;;;;;;;;6136391;23;20022;-85
2024/01/12 07:42:11;;;;;;;133.98;46.50;;;;;;;;;;6111204;23;20127;-86
2024/01/12 08:55:30;;;;;;;113.57;38.13;;;;;;;;;;6138676;23;20014;-89
2024/01/12 08:57:57;;;;;;;98.55;36.90;;;;;;;;;;6131438;23;20022;-90
2024/01/12 09:00:27;;;;;;;89.95;33.70;;;;;;;;;;6107894;23;20022;-91
2024/01/12 09:03:17;;;;;;;85.28;31.50;;;;;;;;;;6107708;23;20065;-91
2024/01/12 09:05:44;;;;;;;90.28;33.85;;;;;;;;;;6106698;23;20093;-89
2024/01/12 09:08:11;;;;;;;91.00;33.85;;;;;;;;;;6104946;23;20456;-89
2024/01/12 09:10:40;;;;;;;86.25;34.10;;;;;;;;;;6103662;23;20026;-88
2024/01/12 09:13:06;;;;;;;84.43;32.47;;;;;;;;;;6104092;23;20143;-88
2024/01/12 09:15:33;;;;;;;86.35;32.38;;;;;;;;;;6104671;23;20015;-90
2024/01/12 09:17:59;;;;;;;90.38;34.95;;;;;;;;;;6104658;23;20371;-89
2024/01/12 09:20:25;;;;;;;85.53;31.50;;;;;;;;;;6105010;23;20074;-89
2024/01/12 09:22:52;;;;;;;92.63;32.90;;;;;;;;;;6105268;23;20022;-88
2024/01/12 09:25:20;;;;;;;93.68;34.72;;;;;;;;;;6105156;23;20243;-90
2024/01/12 09:27:46;;;;;;;96.55;35.03;;;;;;;;;;6104627;23;20069;-89
2024/01/12 09:30:14;;;;;;;103.07;34.03;;;;;;;;;;6104781;23;20023;-90
2024/01/12 09:32:40;;;;;;;101.82;33.92;;;;;;;;;;6104269;23;20025;-90
2024/01/12 09:35:08;;;;;;;108.07;37.15;;;;;;;;;;6105314;23;20463;-89
2024/01/12 09:37:34;;;;;;;104.65;37.72;;;;;;;;;;6105209;23;20456;-90
2024/01/12 09:40:01;;;;;;;99.95;36.80;;;;;;;;;;6104399;23;20024;-89
2024/01/12 09:42:31;;;;;;;95.93;34.90;;;;;;;;;;6105632;23;20093;-90
2024/01/12 09:44:58;;;;;;;97.10;36.20;;;;;;;;;;6106537;23;20074;-90
2024/01/12 09:47:25;;;;;;;99.65;35.03;;;;;;;;;;6104709;23;20085;-90
2024/01/12 09:49:53;;;;;;;102.78;36.05;;;;;;;;;;6104287;23;20018;-90
2024/01/12 09:52:20;;;;;;;103.60;35.08;;;;;;;;;;6105581;23;20034;-90
2024/01/12 09:54:47;;;;;;;98.90;36.78;;;;;;;;;;6105332;23;20038;-90
2024/01/12 09:57:16;;;;;;;102.00;34.53;;;;;;;;;;6107646;23;20062;-92
2024/01/12 09:59:44;;;;;;;98.65;35.90;;;;;;;;;;6105904;23;20022;-90
2024/01/12 10:02:13;;;;;;;102.78;36.78;;;;;;;;;;6105346;23;20022;-91
2024/01/12 10:04:42;;;;;;;102.50;38.05;;;;;;;;;;6106112;23;20121;-90
2024/01/12 10:07:09;;;;;;;97.22;35.70;;;;;;;;;;6110433;23;20041;-91
2024/01/12 10:09:35;;;;;;;101.53;37.35;;;;;;;;;;6106609;23;20054;-92
2024/01/12 10:12:06;;;;;;;98.63;34.83;;;;;;;;;;6108158;23;20026;-92
2024/01/12 10:14:32;;;;;;;101.43;36.65;;;;;;;;;;6113191;23;20038;-92
2024/01/12 10:17:21;;;;;;;101.95;36.78;;;;;;;;;;6112284;23;20289;-92
2024/01/12 10:20:33;;;;;;;98.60;34.47;;;;;;;;;;6107920;23;20024;-85
2024/01/12 10:23:14;;;;;;;102.75;36.90;;;;;;;;;;6136928;23;20037;-84
2024/01/12 10:26:05;;;;;;;95.57;35.78;;;;;;;;;;6134705;23;20018;-81
2024/01/12 10:31:34;;;;;;;83.00;32.92;;;;;;;;;;6102485;23;20466;-83
2024/01/12 10:37:45;;;;;;;72.22;29.70;;;;;;;;;;6096596;23;20057;-84
2024/01/12 11:01:29;;;;;;;54.08;23.35;;;;;;;;;;5938232;23;20029;-84
2024/01/12 11:19:34;;;;;;;66.17;25.23;;;;;;;;;;5965360;24;20028;-83
2024/01/12 11:22:12;;;;;;;69.28;26.77;;;;;;;;;;5967024;23;20273;-83
2024/01/12 11:24:47;;;;;;;69.50;28.77;;;;;;;;;;6050729;23;20522;-84
2024/01/12 12:55:50;;;;;;;56.42;22.58;;;;;;;;;;6101465;23;20340;-83
2024/01/12 13:10:28;;;;;;;64.60;24.73;;;;;;;;;;5992070;23;20800;-83
2024/01/12 13:13:29;;;;;;;61.70;24.73;;;;;;;;;;6109356;23;20576;-83
2024/01/12 13:16:07;;;;;;;55.80;23.92;;;;;;;;;;6140147;23;20018;-82
2024/01/12 13:24:56;;;;;;;56.75;23.50;;;;;;;;;;6131847;23;20375;-84
2024/01/12 13:27:44;;;;;;;57.60;23.42;;;;;;;;;;6070650;23;20025;-83
2024/01/12 13:40:05;;;;;;;56.28;23.98;;;;;;;;;;6012480;23;20610;-84
2024/01/12 13:45:35;;;;;;;51.63;21.73;;;;;;;;;;6127583;23;20482;-82
2024/01/12 13:48:07;;;;;;;53.05;21.98;;;;;;;;;;6131158;23;20117;-82
2024/01/12 13:50:37;;;;;;;44.90;21.20;;;;;;;;;;6130664;23;20033;-83
2024/01/12 13:55:53;;;;;;;53.65;21.33;;;;;;;;;;6113917;23;20020;-81
2024/01/12 13:58:20;;;;;;;46.55;20.63;;;;;;;;;;6132701;23;20018;-80
2024/01/12 14:00:47;;;;;;;47.83;20.38;;;;;;;;;;6132853;23;20029;-81
2024/01/12 14:03:14;;;;;;;52.35;21.42;;;;;;;;;;6132442;23;20074;-80
2024/01/12 14:05:41;;;;;;;47.75;22.70;;;;;;;;;;6113619;23;20014;-79
2024/01/12 14:08:09;;;;;;;49.72;21.83;;;;;;;;;;6110272;23;20033;-80
2024/01/12 14:10:37;;;;;;;49.70;21.00;;;;;;;;;;6108177;23;20097;-79
2024/01/12 14:13:04;;;;;;;52.85;21.15;;;;;;;;;;6107642;23;20029;-80
2024/01/12 14:15:32;;;;;;;54.35;21.15;;;;;;;;;;6102790;23;20061;-80
2024/01/12 14:17:58;;;;;;;53.45;22.00;;;;;;;;;;6103675;23;20061;-79
2024/01/12 14:20:25;;;;;;;51.40;23.10;;;;;;;;;;6102966;23;20029;-79
2024/01/12 14:22:51;;;;;;;54.78;22.33;;;;;;;;;;6101612;23;20064;-80
2024/01/12 14:25:17;;;;;;;47.33;21.92;;;;;;;;;;6101220;23;20387;-80
2024/01/12 14:27:44;;;;;;;57.13;23.88;;;;;;;;;;6101659;23;20029;-79
2024/01/12 14:30:11;;;;;;;59.50;24.50;;;;;;;;;;6101743;23;20107;-78
2024/01/12 14:32:39;;;;;;;57.50;24.73;;;;;;;;;;6101830;23;20026;-80
2024/01/12 14:35:07;;;;;;;59.38;25.35;;;;;;;;;;6101263;23;20032;-79
2024/01/12 14:37:33;;;;;;;57.30;24.48;;;;;;;;;;6105292;23;20426;-78
2024/01/12 14:40:00;;;;;;;56.15;24.25;;;;;;;;;;6107363;23;20026;-77
2024/01/12 14:42:27;;;;;;;61.72;24.27;;;;;;;;;;6106598;23;20026;-78
2024/01/12 14:44:56;;;;;;;54.67;23.45;;;;;;;;;;6103238;23;20097;-79
2024/01/12 14:47:22;;;;;;;63.65;25.95;;;;;;;;;;6101136;23;20034;-80
2024/01/12 14:49:50;;;;;;;61.55;25.27;;;;;;;;;;6101370;23;20057;-79
2024/01/12 14:52:17;;;;;;;63.78;26.20;;;;;;;;;;6100269;23;20069;-81
2024/01/12 14:54:44;;;;;;;62.83;25.50;;;;;;;;;;6100683;23;20038;-80
2024/01/12 14:57:11;;;;;;;59.72;24.10;;;;;;;;;;6101306;23;20403;-80
2024/01/12 14:59:37;;;;;;;65.82;27.08;;;;;;;;;;6100259;23;20065;-79
2024/01/12 15:02:04;;;;;;;62.42;25.80;;;;;;;;;;6100991;23;20034;-80
2024/01/12 15:04:30;;;;;;;61.42;25.92;;;;;;;;;;6100524;23;20026;-80
2024/01/12 15:07:00;;;;;;;67.90;27.92;;;;;;;;;;6100254;23;20061;-80
2024/01/12 15:09:27;;;;;;;66.25;27.05;;;;;;;;;;6102284;23;20038;-79
2024/01/12 15:11:53;;;;;;;69.63;27.73;;;;;;;;;;6101582;23;20054;-81
2024/01/12 15:14:20;;;;;;;60.65;26.48;;;;;;;;;;6102213;23;20045;-81
2024/01/12 15:16:47;;;;;;;78.28;27.80;;;;;;;;;;6102027;23;20062;-80
2024/01/12 15:19:13;;;;;;;61.15;27.13;;;;;;;;;;6102056;23;20034;-81
2024/01/12 15:21:39;;;;;;;71.80;27.02;;;;;;;;;;6102633;23;20143;-80
2024/01/12 15:24:07;;;;;;;67.65;27.95;;;;;;;;;;6103339;23;20027;-82
2024/01/12 15:26:34;;;;;;;69.78;27.58;;;;;;;;;;6102867;23;20060;-81
2024/01/12 15:29:01;;;;;;;75.10;29.08;;;;;;;;;;6103474;23;20128;-81
2024/01/12 15:31:27;;;;;;;71.68;28.33;;;;;;;;;;6102263;23;20033;-80
2024/01/12 15:33:55;;;;;;;69.72;28.25;;;;;;;;;;6103162;23;20027;-80
2024/01/12 15:36:21;;;;;;;68.25;28.38;;;;;;;;;;6104212;23;20148;-81
2024/01/12 15:38:47;;;;;;;69.40;28.73;;;;;;;;;;6104988;23;20018;-82
2024/01/12 15:41:15;;;;;;;66.63;27.75;;;;;;;;;;6102827;23;20033;-82
2024/01/12 15:43:45;;;;;;;69.75;28.60;;;;;;;;;;6103951;23;20026;-82
2024/01/12 15:46:13;;;;;;;75.32;30.08;;;;;;;;;;6103033;23;20364;-81
2024/01/12 15:48:40;;;;;;;76.07;31.48;;;;;;;;;;6103333;23;20026;-82
2024/01/12 15:51:06;;;;;;;75.82;30.63;;;;;;;;;;6103662;23;20482;-81
2024/01/12 15:53:33;;;;;;;82.45;31.92;;;;;;;;;;6103332;23;20053;-80
2024/01/12 15:55:59;;;;;;;79.43;32.90;;;;;;;;;;6102857;23;20033;-79
2024/01/12 15:58:27;;;;;;;81.43;32.85;;;;;;;;;;6101482;23;20052;-78
2024/01/12 16:00:53;;;;;;;76.22;32.00;;;;;;;;;;6102785;23;20054;-79
2024/01/12 16:03:21;;;;;;;73.18;30.90;;;;;;;;;;6101286;23;20038;-80
2024/01/12 16:05:47;;;;;;;83.07;37.78;;;;;;;;;;6100722;23;20362;-79
2024/01/12 16:08:14;;;;;;;78.35;32.00;;;;;;;;;;6102172;23;20023;-79
2024/01/12 16:10:40;;;;;;;74.43;30.00;;;;;;;;;;6101405;23;20050;-80
2024/01/12 16:13:06;;;;;;;73.43;29.20;;;;;;;;;;6101849;23;20411;-79
2024/01/12 16:15:35;;;;;;;73.60;30.00;;;;;;;;;;6102831;23;20026;-79
2024/01/12 16:18:01;;;;;;;81.55;31.85;;;;;;;;;;6102852;23;20022;-78
2024/01/12 16:20:27;;;;;;;70.97;31.17;;;;;;;;;;6102949;23;20034;-80
2024/01/12 16:22:54;;;;;;;70.93;30.35;;;;;;;;;;6103419;23;20033;-80
2024/01/12 16:25:20;;;;;;;74.15;30.63;;;;;;;;;;6102690;23;20022;-79
2024/01/12 16:27:49;;;;;;;73.97;30.90;;;;;;;;;;6106378;23;20049;-79
2024/01/12 16:30:16;;;;;;;82.70;30.15;;;;;;;;;;6105438;23;20338;-79
2024/01/12 16:32:43;;;;;;;75.82;30.33;;;;;;;;;;6101600;23;20031;-80
2024/01/12 16:35:10;;;;;;;79.65;29.60;;;;;;;;;;6100862;23;20431;-80
2024/01/12 16:37:36;;;;;;;71.90;29.77;;;;;;;;;;6101566;23;20029;-80
2024/01/12 16:40:04;;;;;;;76.78;31.33;;;;;;;;;;6101314;23;20057;-80
2024/01/12 16:42:31;;;;;;;80.85;31.95;;;;;;;;;;6101463;23;20026;-80
2024/01/12 16:44:57;;;;;;;77.53;31.48;;;;;;;;;;6100372;23;20027;-79
2024/01/12 16:47:23;;;;;;;76.97;33.38;;;;;;;;;;6101473;23;20019;-80
2024/01/12 16:49:51;;;;;;;76.72;31.30;;;;;;;;;;6101080;23;20050;-80
2024/01/12 16:52:18;;;;;;;72.82;30.60;;;;;;;;;;6100525;23;20054;-80
2024/01/12 16:54:44;;;;;;;84.35;30.83;;;;;;;;;;6099318;23;20037;-80
2024/01/12 16:57:11;;;;;;;67.40;29.38;;;;;;;;;;6100805;23;20105;-79
2024/01/12 16:59:39;;;;;;;81.85;32.25;;;;;;;;;;6102601;23;20390;-81
2024/01/12 17:02:06;;;;;;;81.05;31.42;;;;;;;;;;6102103;23;20054;-81
2024/01/12 17:04:32;;;;;;;69.28;30.65;;;;;;;;;;6101707;23;20065;-79
2024/01/12 17:07:03;;;;;;;73.40;30.23;;;;;;;;;;6102624;23;20022;-79
2024/01/12 17:09:29;;;;;;;71.55;29.30;;;;;;;;;;6104467;23;20033;-80
2024/01/12 17:11:56;;;;;;;78.18;31.50;;;;;;;;;;6103379;23;20054;-79
2024/01/12 17:14:23;;;;;;;69.68;30.27;;;;;;;;;;6103179;23;20022;-80
2024/01/12 17:16:49;;;;;;;80.78;32.25;;;;;;;;;;6103851;23;20032;-80
2024/01/12 17:19:19;;;;;;;79.10;30.63;;;;;;;;;;6099044;23;20343;-81
2024/01/12 17:21:51;;;;;;;82.32;32.88;;;;;;;;;;6099297;23;20574;-80
2024/01/12 17:24:23;;;;;;;77.82;32.15;;;;;;;;;;6101793;23;20041;-81
2024/01/12 17:26:50;;;;;;;80.00;33.03;;;;;;;;;;6102107;23;20030;-80
2024/01/12 17:29:20;;;;;;;64.43;29.80;;;;;;;;;;6102504;23;20537;-80
2024/01/12 17:31:47;;;;;;;79.05;31.75;;;;;;;;;;6101083;23;20026;-80
2024/01/12 17:34:14;;;;;;;73.53;32.60;;;;;;;;;;6103886;23;20040;-79
2024/01/12 17:36:40;;;;;;;80.78;33.05;;;;;;;;;;6103821;23;20026;-80
2024/01/12 17:39:10;;;;;;;78.07;30.95;;;;;;;;;;6103771;23;20025;-80
2024/01/12 17:41:43;;;;;;;68.13;30.60;;;;;;;;;;6101904;23;20093;-78
2024/01/12 17:44:09;;;;;;;;;;;;;;;;;;6101908;23;20023;-80
2024/01/12 17:46:41;;;;;;;75.80;30.98;;;;;;;;;;6101435;23;19921;-79
2024/01/12 17:49:13;;;;;;;80.57;32.00;;;;;;;;;;6101945;23;20029;-80
2024/01/12 17:52:04;;;;;;;75.82;31.48;;;;;;;;;;6101639;23;20056;-80
2024/01/12 17:54:30;;;;;;;75.60;30.98;;;;;;;;;;6100839;23;20018;-78
2024/01/12 17:57:07;;;;;;;82.47;32.75;;;;;;;;;;6103041;23;20019;-77
2024/01/12 18:00:06;;;;;;;74.07;31.33;;;;;;;;;;6103485;23;20018;-81
2024/01/12 18:02:35;;;;;;;77.05;30.98;;;;;;;;;;6068401;23;20053;-79
2024/01/12 18:05:07;;;;;;;79.40;33.10;;;;;;;;;;6100329;23;20351;-79
2024/01/12 18:07:41;;;;;;;76.68;30.80;;;;;;;;;;6099099;23;20048;-77
2024/01/12 18:10:14;;;;;;;75.72;33.45;;;;;;;;;;6095723;23;20152;-80
2024/01/12 18:12:53;;;;;;;81.68;34.63;;;;;;;;;;6099346;23;20033;-79
2024/01/12 18:15:29;;;;;;;84.78;33.70;;;;;;;;;;6099950;23;20098;-79
2024/01/12 18:17:58;;;;;;;86.75;34.90;;;;;;;;;;6099531;23;20030;-78
2024/01/12 18:20:28;;;;;;;82.30;31.58;;;;;;;;;;6100127;23;20098;-79
2024/01/12 18:22:54;;;;;;;83.28;34.97;;;;;;;;;;6100448;23;20024;-79
2024/01/12 18:25:26;;;;;;;71.63;31.70;;;;;;;;;;6097427;23;20027;-79
2024/01/12 18:28:04;;;;;;;76.18;33.35;;;;;;;;;;6100317;23;20019;-79
2024/01/12 18:30:33;;;;;;;68.75;31.40;;;;;;;;;;6101058;23;20412;-79
2024/01/12 18:33:00;;;;;;;79.75;32.08;;;;;;;;;;6100696;23;20030;-78
2024/01/12 18:35:28;;;;;;;86.80;33.03;;;;;;;;;;6096842;23;20340;-79
2024/01/12 18:37:57;;;;;;;81.03;32.72;;;;;;;;;;6096085;23;20018;-79
2024/01/12 18:40:28;;;;;;;81.70;34.17;;;;;;;;;;6096731;23;20030;-79
2024/01/12 18:43:00;;;;;;;83.88;34.25;;;;;;;;;;6094607;23;20018;-77
2024/01/12 18:45:33;;;;;;;75.38;34.75;;;;;;;;;;6095776;23;20026;-79
2024/01/12 18:48:00;;;;;;;75.28;31.65;;;;;;;;;;6094767;23;20057;-78
2024/01/12 18:50:32;;;;;;;80.80;33.33;;;;;;;;;;6095641;23;20061;-78
2024/01/12 18:53:02;;;;;;;80.65;31.75;;;;;;;;;;6095294;23;20474;-77
2024/01/12 18:55:35;;;;;;;84.68;33.55;;;;;;;;;;6095245;23;20022;-76
2024/01/12 18:58:09;;;;;;;84.50;33.05;;;;;;;;;;6095479;23;20014;-79
2024/01/12 19:00:55;;;;;;;85.43;34.38;;;;;;;;;;6095763;23;20359;-78
2024/01/12 19:03:32;;;;;;;84.68;35.13;;;;;;;;;;6096371;23;20089;-78